River Pines, California
Current Conditions -  °F | °C
As of 11:35 PM on Thursday 18 Dec 2014 (Local Time) from KPVF Reporting Station
Broken Clouds Broken Clouds  
Wind Chill: 43°   Ceiling: 8500
Heat Index: 46°   Visibility: 10mi
Dew Point: 37°   Wind: 7mph
Humidity: 71%   Direction: 210°SSW
Pressure: 30.21"   Gusts: NA
Location:  38.55°N, 120.74°W
Report Text: KPVF 190735Z AUTO 21006KT 10SM FEW040 BKN085 08/03 A3021 RMK AO1
Loading
Personal Weather Stations






























Interactive Weather Map New forecast layout! Learn more

10-Day Weather Forecast

Advertisements
Track Severe Weather on mobile